sensor_id;sensor_type;location;lat;lon;timestamp;P1;durP1;ratioP1;P2;durP2;ratioP2
65463;SDS011;52063;45.110;9.870;2023-02-18T00:00:04;7.57;;;6.70;;
65463;SDS011;52063;45.110;9.870;2023-02-18T00:02:32;7.35;;;6.65;;
65463;SDS011;52063;45.110;9.870;2023-02-18T00:04:58;7.17;;;6.40;;
65463;SDS011;52063;45.110;9.870;2023-02-18T00:07:23;7.30;;;6.53;;
65463;SDS011;52063;45.110;9.870;2023-02-18T00:09:48;7.90;;;7.00;;
65463;SDS011;52063;45.110;9.870;2023-02-18T00:12:14;7.17;;;6.47;;
65463;SDS011;52063;45.110;9.870;2023-02-18T00:14:39;8.23;;;7.10;;
65463;SDS011;52063;45.110;9.870;2023-02-18T00:17:05;8.43;;;7.50;;
65463;SDS011;52063;45.110;9.870;2023-02-18T00:19:30;8.67;;;6.97;;
65463;SDS011;52063;45.110;9.870;2023-02-18T00:21:56;8.37;;;6.93;;
65463;SDS011;52063;45.110;9.870;2023-02-18T00:24:21;9.13;;;7.30;;
65463;SDS011;52063;45.110;9.870;2023-02-18T00:26:49;10.00;;;7.20;;
65463;SDS011;52063;45.110;9.870;2023-02-18T00:29:16;8.02;;;7.22;;
65463;SDS011;52063;45.110;9.870;2023-02-18T00:31:41;8.13;;;7.30;;
65463;SDS011;52063;45.110;9.870;2023-02-18T00:34:08;9.65;;;7.05;;
65463;SDS011;52063;45.110;9.870;2023-02-18T00:36:35;8.10;;;7.30;;
65463;SDS011;52063;45.110;9.870;2023-02-18T00:39:01;8.63;;;7.37;;
65463;SDS011;52063;45.110;9.870;2023-02-18T00:41:29;8.13;;;7.32;;
65463;SDS011;52063;45.110;9.870;2023-02-18T00:43:55;8.15;;;6.90;;
65463;SDS011;52063;45.110;9.870;2023-02-18T00:46:21;10.87;;;7.53;;
65463;SDS011;52063;45.110;9.870;2023-02-18T00:48:47;8.70;;;7.80;;
65463;SDS011;52063;45.110;9.870;2023-02-18T00:51:13;10.40;;;7.75;;
65463;SDS011;52063;45.110;9.870;2023-02-18T00:53:39;8.50;;;6.93;;
65463;SDS011;52063;45.110;9.870;2023-02-18T00:56:05;8.25;;;7.45;;
65463;SDS011;52063;45.110;9.870;2023-02-18T00:58:31;8.27;;;7.43;;
65463;SDS011;52063;45.110;9.870;2023-02-18T01:00:58;8.18;;;7.35;;
65463;SDS011;52063;45.110;9.870;2023-02-18T01:03:23;8.15;;;7.35;;
65463;SDS011;52063;45.110;9.870;2023-02-18T01:05:50;7.43;;;6.63;;
65463;SDS011;52063;45.110;9.870;2023-02-18T01:08:17;10.30;;;7.82;;
65463;SDS011;52063;45.110;9.870;2023-02-18T01:10:44;9.20;;;7.03;;
65463;SDS011;52063;45.110;9.870;2023-02-18T01:13:11;9.23;;;7.80;;
65463;SDS011;52063;45.110;9.870;2023-02-18T01:15:38;8.57;;;7.78;;
65463;SDS011;52063;45.110;9.870;2023-02-18T01:18:04;8.70;;;7.20;;
65463;SDS011;52063;45.110;9.870;2023-02-18T01:20:33;8.55;;;7.65;;
65463;SDS011;52063;45.110;9.870;2023-02-18T01:22:59;8.52;;;7.57;;
65463;SDS011;52063;45.110;9.870;2023-02-18T01:25:24;7.80;;;7.10;;
65463;SDS011;52063;45.110;9.870;2023-02-18T01:27:50;9.38;;;7.95;;
65463;SDS011;52063;45.110;9.870;2023-02-18T01:30:16;8.37;;;7.23;;
65463;SDS011;52063;45.110;9.870;2023-02-18T01:32:43;8.43;;;7.38;;
65463;SDS011;52063;45.110;9.870;2023-02-18T01:35:10;8.80;;;7.63;;
65463;SDS011;52063;45.110;9.870;2023-02-18T01:37:37;7.95;;;7.00;;
65463;SDS011;52063;45.110;9.870;2023-02-18T01:40:03;9.23;;;7.90;;
65463;SDS011;52063;45.110;9.870;2023-02-18T01:42:30;9.10;;;7.70;;
65463;SDS011;52063;45.110;9.870;2023-02-18T01:47:59;8.60;;;7.50;;
65463;SDS011;52063;45.110;9.870;2023-02-18T01:50:26;7.40;;;6.70;;
65463;SDS011;52063;45.110;9.870;2023-02-18T01:52:51;8.00;;;7.20;;
65463;SDS011;52063;45.110;9.870;2023-02-18T01:55:17;9.10;;;7.17;;
65463;SDS011;52063;45.110;9.870;2023-02-18T01:57:42;10.33;;;7.80;;
65463;SDS011;52063;45.110;9.870;2023-02-18T02:00:11;9.02;;;8.13;;
65463;SDS011;52063;45.110;9.870;2023-02-18T02:02:45;7.78;;;6.97;;
65463;SDS011;52063;45.110;9.870;2023-02-18T02:05:11;8.65;;;7.53;;
65463;SDS011;52063;45.110;9.870;2023-02-18T02:07:37;7.80;;;7.00;;
65463;SDS011;52063;45.110;9.870;2023-02-18T02:10:03;8.80;;;7.63;;
65463;SDS011;52063;45.110;9.870;2023-02-18T02:18:27;7.53;;;6.82;;
65463;SDS011;52063;45.110;9.870;2023-02-18T02:37:36;8.02;;;7.22;;
65463;SDS011;52063;45.110;9.870;2023-02-18T02:40:22;7.20;;;6.50;;
65463;SDS011;52063;45.110;9.870;2023-02-18T02:50:48;10.27;;;6.57;;
65463;SDS011;52063;45.110;9.870;2023-02-18T02:53:18;7.88;;;6.60;;
65463;SDS011;52063;45.110;9.870;2023-02-18T02:55:47;7.05;;;6.38;;
65463;SDS011;52063;45.110;9.870;2023-02-18T02:58:17;7.40;;;6.70;;
65463;SDS011;52063;45.110;9.870;2023-02-18T03:00:48;7.10;;;6.43;;
65463;SDS011;52063;45.110;9.870;2023-02-18T03:09:16;7.97;;;7.18;;
65463;SDS011;52063;45.110;9.870;2023-02-18T03:12:06;7.78;;;7.07;;
65463;SDS011;52063;45.110;9.870;2023-02-18T03:14:50;7.17;;;6.57;;
65463;SDS011;52063;45.110;9.870;2023-02-18T03:17:22;8.00;;;7.18;;
65463;SDS011;52063;45.110;9.870;2023-02-18T03:20:37;7.30;;;6.60;;
65463;SDS011;52063;45.110;9.870;2023-02-18T03:22:46;7.03;;;6.43;;
65463;SDS011;52063;45.110;9.870;2023-02-18T03:25:13;8.20;;;6.82;;
65463;SDS011;52063;45.110;9.870;2023-02-18T03:27:42;7.77;;;6.97;;
65463;SDS011;52063;45.110;9.870;2023-02-18T03:30:19;7.20;;;6.50;;
65463;SDS011;52063;45.110;9.870;2023-02-18T03:32:48;7.03;;;6.32;;
65463;SDS011;52063;45.110;9.870;2023-02-18T03:35:16;7.30;;;6.50;;
65463;SDS011;52063;45.110;9.870;2023-02-18T03:37:44;7.70;;;7.00;;
65463;SDS011;52063;45.110;9.870;2023-02-18T03:40:14;7.40;;;6.57;;
65463;SDS011;52063;45.110;9.870;2023-02-18T03:42:42;7.90;;;7.10;;
65463;SDS011;52063;45.110;9.870;2023-02-18T03:45:08;7.45;;;6.75;;
65463;SDS011;52063;45.110;9.870;2023-02-18T03:47:34;7.00;;;6.30;;
65463;SDS011;52063;45.110;9.870;2023-02-18T03:50:00;7.35;;;6.65;;
65463;SDS011;52063;45.110;9.870;2023-02-18T03:52:26;7.60;;;6.90;;
65463;SDS011;52063;45.110;9.870;2023-02-18T03:54:51;8.23;;;7.32;;
65463;SDS011;52063;45.110;9.870;2023-02-18T03:57:17;8.07;;;6.73;;
65463;SDS011;52063;45.110;9.870;2023-02-18T03:59:42;7.90;;;6.67;;
65463;SDS011;52063;45.110;9.870;2023-02-18T04:02:08;7.78;;;6.95;;
65463;SDS011;52063;45.110;9.870;2023-02-18T04:04:34;7.57;;;6.88;;
65463;SDS011;52063;45.110;9.870;2023-02-18T04:06:59;7.03;;;6.43;;
65463;SDS011;52063;45.110;9.870;2023-02-18T04:09:25;6.80;;;6.20;;
65463;SDS011;52063;45.110;9.870;2023-02-18T04:11:50;7.72;;;6.93;;
65463;SDS011;52063;45.110;9.870;2023-02-18T04:14:16;6.97;;;6.27;;
65463;SDS011;52063;45.110;9.870;2023-02-18T04:16:41;6.90;;;6.30;;
65463;SDS011;52063;45.110;9.870;2023-02-18T04:19:07;7.20;;;6.50;;
65463;SDS011;52063;45.110;9.870;2023-02-18T04:21:32;8.00;;;6.60;;
65463;SDS011;52063;45.110;9.870;2023-02-18T04:23:58;8.43;;;6.60;;
65463;SDS011;52063;45.110;9.870;2023-02-18T04:26:24;6.93;;;6.23;;
65463;SDS011;52063;45.110;9.870;2023-02-18T04:28:49;7.25;;;6.55;;
65463;SDS011;52063;45.110;9.870;2023-02-18T04:31:15;6.23;;;5.53;;
65463;SDS011;52063;45.110;9.870;2023-02-18T04:33:41;7.27;;;6.57;;
65463;SDS011;52063;45.110;9.870;2023-02-18T04:36:06;7.20;;;6.50;;
65463;SDS011;52063;45.110;9.870;2023-02-18T04:38:32;7.00;;;6.40;;
65463;SDS011;52063;45.110;9.870;2023-02-18T04:40:57;7.75;;;6.30;;
65463;SDS011;52063;45.110;9.870;2023-02-18T04:43:23;6.13;;;5.57;;
65463;SDS011;52063;45.110;9.870;2023-02-18T04:45:48;6.73;;;6.07;;
65463;SDS011;52063;45.110;9.870;2023-02-18T04:48:14;7.20;;;6.50;;
65463;SDS011;52063;45.110;9.870;2023-02-18T04:50:39;7.33;;;6.00;;
65463;SDS011;52063;45.110;9.870;2023-02-18T04:53:05;8.13;;;6.33;;
65463;SDS011;52063;45.110;9.870;2023-02-18T04:55:30;6.63;;;6.03;;
65463;SDS011;52063;45.110;9.870;2023-02-18T04:57:56;6.80;;;6.20;;
65463;SDS011;52063;45.110;9.870;2023-02-18T05:00:21;7.00;;;6.30;;
65463;SDS011;52063;45.110;9.870;2023-02-18T05:02:47;6.75;;;6.15;;
65463;SDS011;52063;45.110;9.870;2023-02-18T05:05:13;7.60;;;6.70;;
65463;SDS011;52063;45.110;9.870;2023-02-18T05:07:38;6.78;;;6.07;;
65463;SDS011;52063;45.110;9.870;2023-02-18T05:10:05;6.37;;;5.80;;
65463;SDS011;52063;45.110;9.870;2023-02-18T05:12:31;6.63;;;6.03;;
65463;SDS011;52063;45.110;9.870;2023-02-18T05:14:57;5.73;;;5.23;;
65463;SDS011;52063;45.110;9.870;2023-02-18T05:17:22;6.80;;;6.10;;
65463;SDS011;52063;45.110;9.870;2023-02-18T05:19:48;6.60;;;5.93;;
65463;SDS011;52063;45.110;9.870;2023-02-18T05:22:13;6.77;;;6.07;;
65463;SDS011;52063;45.110;9.870;2023-02-18T05:24:38;6.20;;;5.60;;
65463;SDS011;52063;45.110;9.870;2023-02-18T05:27:04;6.85;;;6.15;;
65463;SDS011;52063;45.110;9.870;2023-02-18T05:29:29;7.20;;;6.13;;
65463;SDS011;52063;45.110;9.870;2023-02-18T05:31:55;6.93;;;6.23;;
65463;SDS011;52063;45.110;9.870;2023-02-18T05:34:20;6.88;;;6.18;;
65463;SDS011;52063;45.110;9.870;2023-02-18T05:36:46;6.40;;;5.80;;
65463;SDS011;52063;45.110;9.870;2023-02-18T05:39:11;5.77;;;5.27;;
65463;SDS011;52063;45.110;9.870;2023-02-18T05:41:36;5.83;;;5.33;;
65463;SDS011;52063;45.110;9.870;2023-02-18T05:44:02;5.88;;;5.38;;
65463;SDS011;52063;45.110;9.870;2023-02-18T05:46:46;5.63;;;5.13;;
65463;SDS011;52063;45.110;9.870;2023-02-18T05:49:11;5.88;;;5.38;;
65463;SDS011;52063;45.110;9.870;2023-02-18T05:51:37;6.23;;;4.83;;
65463;SDS011;52063;45.110;9.870;2023-02-18T05:54:02;6.20;;;5.47;;
65463;SDS011;52063;45.110;9.870;2023-02-18T05:56:28;6.20;;;5.70;;
65463;SDS011;52063;45.110;9.870;2023-02-18T05:58:54;6.38;;;5.78;;
65463;SDS011;52063;45.110;9.870;2023-02-18T06:01:19;5.83;;;5.33;;
65463;SDS011;52063;45.110;9.870;2023-02-18T06:03:45;5.77;;;5.17;;
65463;SDS011;52063;45.110;9.870;2023-02-18T06:06:10;5.72;;;5.22;;
65463;SDS011;52063;45.110;9.870;2023-02-18T06:08:36;5.63;;;5.13;;
65463;SDS011;52063;45.110;9.870;2023-02-18T06:11:02;5.70;;;5.20;;
65463;SDS011;52063;45.110;9.870;2023-02-18T06:13:27;5.80;;;5.30;;
65463;SDS011;52063;45.110;9.870;2023-02-18T06:15:53;5.40;;;4.90;;
65463;SDS011;52063;45.110;9.870;2023-02-18T06:18:19;5.38;;;4.88;;
65463;SDS011;52063;45.110;9.870;2023-02-18T06:20:45;5.43;;;4.93;;
65463;SDS011;52063;45.110;9.870;2023-02-18T06:23:11;5.47;;;5.03;;
65463;SDS011;52063;45.110;9.870;2023-02-18T06:25:37;6.68;;;5.28;;
65463;SDS011;52063;45.110;9.870;2023-02-18T06:28:02;5.13;;;4.70;;
65463;SDS011;52063;45.110;9.870;2023-02-18T06:30:28;5.40;;;4.87;;
65463;SDS011;52063;45.110;9.870;2023-02-18T06:32:53;5.28;;;4.78;;
65463;SDS011;52063;45.110;9.870;2023-02-18T06:35:19;5.17;;;4.67;;
65463;SDS011;52063;45.110;9.870;2023-02-18T06:37:44;5.97;;;5.10;;
65463;SDS011;52063;45.110;9.870;2023-02-18T06:40:10;5.25;;;4.85;;
65463;SDS011;52063;45.110;9.870;2023-02-18T06:42:36;4.87;;;4.50;;
65463;SDS011;52063;45.110;9.870;2023-02-18T06:45:01;5.32;;;4.82;;
65463;SDS011;52063;45.110;9.870;2023-02-18T06:47:27;5.37;;;4.87;;
65463;SDS011;52063;45.110;9.870;2023-02-18T06:49:52;5.00;;;4.60;;
65463;SDS011;52063;45.110;9.870;2023-02-18T06:52:18;5.35;;;4.85;;
65463;SDS011;52063;45.110;9.870;2023-02-18T06:54:43;5.37;;;4.80;;
65463;SDS011;52063;45.110;9.870;2023-02-18T06:57:09;4.93;;;4.43;;
65463;SDS011;52063;45.110;9.870;2023-02-18T06:59:34;4.90;;;4.20;;
65463;SDS011;52063;45.110;9.870;2023-02-18T07:01:59;4.00;;;3.70;;
65463;SDS011;52063;45.110;9.870;2023-02-18T07:04:25;4.40;;;4.00;;
65463;SDS011;52063;45.110;9.870;2023-02-18T07:06:51;4.20;;;3.80;;
65463;SDS011;52063;45.110;9.870;2023-02-18T07:09:16;5.87;;;3.73;;
65463;SDS011;52063;45.110;9.870;2023-02-18T07:11:41;3.87;;;3.57;;
65463;SDS011;52063;45.110;9.870;2023-02-18T07:14:07;4.27;;;3.87;;
65463;SDS011;52063;45.110;9.870;2023-02-18T07:16:32;4.00;;;3.70;;
65463;SDS011;52063;45.110;9.870;2023-02-18T07:18:58;4.10;;;3.70;;
65463;SDS011;52063;45.110;9.870;2023-02-18T07:21:23;4.03;;;3.73;;
65463;SDS011;52063;45.110;9.870;2023-02-18T07:23:49;3.93;;;3.63;;
65463;SDS011;52063;45.110;9.870;2023-02-18T07:26:14;3.70;;;3.40;;
65463;SDS011;52063;45.110;9.870;2023-02-18T07:28:40;4.23;;;3.63;;
65463;SDS011;52063;45.110;9.870;2023-02-18T07:31:06;4.00;;;3.70;;
65463;SDS011;52063;45.110;9.870;2023-02-18T07:33:32;4.10;;;3.53;;
65463;SDS011;52063;45.110;9.870;2023-02-18T07:35:58;4.20;;;3.90;;
65463;SDS011;52063;45.110;9.870;2023-02-18T07:38:25;4.00;;;3.60;;
65463;SDS011;52063;45.110;9.870;2023-02-18T07:40:52;3.80;;;3.50;;
65463;SDS011;52063;45.110;9.870;2023-02-18T07:43:17;4.20;;;3.10;;
65463;SDS011;52063;45.110;9.870;2023-02-18T07:45:43;3.90;;;3.60;;
65463;SDS011;52063;45.110;9.870;2023-02-18T07:48:09;3.92;;;3.63;;
65463;SDS011;52063;45.110;9.870;2023-02-18T07:50:34;4.17;;;3.73;;
65463;SDS011;52063;45.110;9.870;2023-02-18T07:53:04;3.95;;;3.58;;
65463;SDS011;52063;45.110;9.870;2023-02-18T07:55:30;3.65;;;3.35;;
65463;SDS011;52063;45.110;9.870;2023-02-18T07:58:21;4.77;;;3.50;;
65463;SDS011;52063;45.110;9.870;2023-02-18T08:00:48;3.95;;;3.65;;
65463;SDS011;52063;45.110;9.870;2023-02-18T08:03:16;3.83;;;3.53;;
65463;SDS011;52063;45.110;9.870;2023-02-18T08:05:43;3.67;;;3.38;;
65463;SDS011;52063;45.110;9.870;2023-02-18T08:08:16;4.60;;;4.20;;
65463;SDS011;52063;45.110;9.870;2023-02-18T08:10:46;4.40;;;4.00;;
65463;SDS011;52063;45.110;9.870;2023-02-18T08:13:12;4.15;;;3.83;;
65463;SDS011;52063;45.110;9.870;2023-02-18T08:15:38;4.50;;;4.10;;
65463;SDS011;52063;45.110;9.870;2023-02-18T08:18:03;3.88;;;3.45;;
65463;SDS011;52063;45.110;9.870;2023-02-18T08:20:29;5.03;;;4.18;;
65463;SDS011;52063;45.110;9.870;2023-02-18T08:22:55;4.70;;;4.23;;
65463;SDS011;52063;45.110;9.870;2023-02-18T08:25:20;4.53;;;4.00;;
65463;SDS011;52063;45.110;9.870;2023-02-18T08:27:46;3.80;;;3.50;;
65463;SDS011;52063;45.110;9.870;2023-02-18T08:30:11;4.03;;;3.65;;
65463;SDS011;52063;45.110;9.870;2023-02-18T08:32:37;4.40;;;4.00;;
65463;SDS011;52063;45.110;9.870;2023-02-18T08:35:03;4.57;;;4.18;;
65463;SDS011;52063;45.110;9.870;2023-02-18T08:37:29;4.78;;;4.00;;
65463;SDS011;52063;45.110;9.870;2023-02-18T08:39:54;6.10;;;4.00;;
65463;SDS011;52063;45.110;9.870;2023-02-18T08:42:20;4.10;;;3.70;;
65463;SDS011;52063;45.110;9.870;2023-02-18T08:44:45;5.00;;;4.60;;
65463;SDS011;52063;45.110;9.870;2023-02-18T08:47:11;4.60;;;4.20;;
65463;SDS011;52063;45.110;9.870;2023-02-18T08:49:36;4.77;;;4.37;;
65463;SDS011;52063;45.110;9.870;2023-02-18T08:52:02;4.60;;;4.17;;
65463;SDS011;52063;45.110;9.870;2023-02-18T08:54:28;4.75;;;4.35;;
65463;SDS011;52063;45.110;9.870;2023-02-18T08:56:54;5.20;;;4.20;;
65463;SDS011;52063;45.110;9.870;2023-02-18T08:59:22;5.03;;;3.87;;
65463;SDS011;52063;45.110;9.870;2023-02-18T09:01:50;3.95;;;3.65;;
65463;SDS011;52063;45.110;9.870;2023-02-18T09:04:15;4.30;;;3.92;;
65463;SDS011;52063;45.110;9.870;2023-02-18T09:06:40;4.53;;;4.13;;
65463;SDS011;52063;45.110;9.870;2023-02-18T09:09:06;5.03;;;4.53;;
65463;SDS011;52063;45.110;9.870;2023-02-18T09:11:32;4.80;;;4.40;;
65463;SDS011;52063;45.110;9.870;2023-02-18T09:13:57;4.40;;;4.10;;
65463;SDS011;52063;45.110;9.870;2023-02-18T09:16:23;6.57;;;4.20;;
65463;SDS011;52063;45.110;9.870;2023-02-18T09:18:48;5.37;;;4.83;;
65463;SDS011;52063;45.110;9.870;2023-02-18T09:21:14;5.37;;;4.87;;
65463;SDS011;52063;45.110;9.870;2023-02-18T09:23:41;5.72;;;4.90;;
65463;SDS011;52063;45.110;9.870;2023-02-18T09:26:07;5.28;;;4.68;;
65463;SDS011;52063;45.110;9.870;2023-02-18T09:28:35;6.78;;;5.15;;
65463;SDS011;52063;45.110;9.870;2023-02-18T09:31:08;5.13;;;4.63;;
65463;SDS011;52063;45.110;9.870;2023-02-18T09:33:37;5.20;;;4.70;;
65463;SDS011;52063;45.110;9.870;2023-02-18T09:36:04;7.13;;;5.35;;
65463;SDS011;52063;45.110;9.870;2023-02-18T09:38:30;5.43;;;4.93;;
65463;SDS011;52063;45.110;9.870;2023-02-18T09:40:55;5.77;;;5.20;;
65463;SDS011;52063;45.110;9.870;2023-02-18T09:43:29;5.53;;;5.03;;
65463;SDS011;52063;45.110;9.870;2023-02-18T09:45:58;5.75;;;5.18;;
65463;SDS011;52063;45.110;9.870;2023-02-18T09:48:25;6.00;;;5.40;;
65463;SDS011;52063;45.110;9.870;2023-02-18T09:50:53;5.95;;;5.45;;
65463;SDS011;52063;45.110;9.870;2023-02-18T09:53:19;5.20;;;4.80;;
65463;SDS011;52063;45.110;9.870;2023-02-18T09:55:46;5.60;;;5.03;;
65463;SDS011;52063;45.110;9.870;2023-02-18T09:58:20;4.95;;;4.55;;
65463;SDS011;52063;45.110;9.870;2023-02-18T10:00:50;5.20;;;4.70;;
65463;SDS011;52063;45.110;9.870;2023-02-18T10:03:18;5.10;;;4.60;;
65463;SDS011;52063;45.110;9.870;2023-02-18T10:08:38;5.47;;;4.97;;
65463;SDS011;52063;45.110;9.870;2023-02-18T10:11:49;7.15;;;6.43;;
65463;SDS011;52063;45.110;9.870;2023-02-18T10:13:57;11.13;;;7.20;;
65463;SDS011;52063;45.110;9.870;2023-02-18T10:16:25;12.27;;;9.77;;
65463;SDS011;52063;45.110;9.870;2023-02-18T10:19:00;9.35;;;7.70;;
65463;SDS011;52063;45.110;9.870;2023-02-18T10:21:29;8.50;;;7.53;;
65463;SDS011;52063;45.110;9.870;2023-02-18T10:24:01;8.73;;;7.82;;
65463;SDS011;52063;45.110;9.870;2023-02-18T10:26:30;13.40;;;8.60;;
65463;SDS011;52063;45.110;9.870;2023-02-18T10:28:58;13.47;;;10.43;;
65463;SDS011;52063;45.110;9.870;2023-02-18T10:31:25;15.35;;;11.43;;
65463;SDS011;52063;45.110;9.870;2023-02-18T10:36:38;18.87;;;14.17;;
65463;SDS011;52063;45.110;9.870;2023-02-18T10:39:13;26.40;;;16.65;;
65463;SDS011;52063;45.110;9.870;2023-02-18T10:41:52;28.17;;;17.30;;
65463;SDS011;52063;45.110;9.870;2023-02-18T10:44:44;31.10;;;19.15;;
65463;SDS011;52063;45.110;9.870;2023-02-18T10:47:36;34.65;;;18.98;;
65463;SDS011;52063;45.110;9.870;2023-02-18T10:52:43;31.27;;;17.98;;
65463;SDS011;52063;45.110;9.870;2023-02-18T10:55:14;26.53;;;17.00;;
65463;SDS011;52063;45.110;9.870;2023-02-18T10:57:52;28.95;;;16.45;;
65463;SDS011;52063;45.110;9.870;2023-02-18T11:00:23;21.85;;;15.15;;
65463;SDS011;52063;45.110;9.870;2023-02-18T11:03:01;17.80;;;12.35;;
65463;SDS011;52063;45.110;9.870;2023-02-18T11:05:28;16.35;;;11.98;;
65463;SDS011;52063;45.110;9.870;2023-02-18T11:07:55;19.13;;;12.63;;
65463;SDS011;52063;45.110;9.870;2023-02-18T11:10:25;19.40;;;12.63;;
65463;SDS011;52063;45.110;9.870;2023-02-18T11:12:57;16.83;;;12.55;;
65463;SDS011;52063;45.110;9.870;2023-02-18T11:15:26;20.27;;;13.63;;
65463;SDS011;52063;45.110;9.870;2023-02-18T11:17:53;18.75;;;14.15;;
65463;SDS011;52063;45.110;9.870;2023-02-18T11:25:31;16.90;;;13.10;;
65463;SDS011;52063;45.110;9.870;2023-02-18T11:28:00;18.07;;;12.80;;
65463;SDS011;52063;45.110;9.870;2023-02-18T11:30:31;17.23;;;13.15;;
65463;SDS011;52063;45.110;9.870;2023-02-18T11:35:56;18.30;;;12.38;;
65463;SDS011;52063;45.110;9.870;2023-02-18T11:40:58;13.87;;;11.17;;
65463;SDS011;52063;45.110;9.870;2023-02-18T11:43:31;14.93;;;11.05;;
65463;SDS011;52063;45.110;9.870;2023-02-18T11:46:10;12.68;;;11.30;;
65463;SDS011;52063;45.110;9.870;2023-02-18T11:48:40;12.63;;;10.40;;
65463;SDS011;52063;45.110;9.870;2023-02-18T11:51:12;16.60;;;11.00;;
65463;SDS011;52063;45.110;9.870;2023-02-18T11:54:03;13.77;;;11.02;;
65463;SDS011;52063;45.110;9.870;2023-02-18T11:56:42;12.85;;;11.35;;
65463;SDS011;52063;45.110;9.870;2023-02-18T11:59:20;15.95;;;11.02;;
65463;SDS011;52063;45.110;9.870;2023-02-18T12:01:48;16.20;;;11.80;;
65463;SDS011;52063;45.110;9.870;2023-02-18T12:04:18;14.05;;;11.35;;
65463;SDS011;52063;45.110;9.870;2023-02-18T12:09:27;16.77;;;11.32;;
65463;SDS011;52063;45.110;9.870;2023-02-18T12:11:56;11.52;;;9.60;;
65463;SDS011;52063;45.110;9.870;2023-02-18T12:14:23;14.33;;;11.33;;
65463;SDS011;52063;45.110;9.870;2023-02-18T12:27:48;16.33;;;11.93;;
65463;SDS011;52063;45.110;9.870;2023-02-18T12:32:51;15.93;;;12.87;;
65463;SDS011;52063;45.110;9.870;2023-02-18T12:52:13;27.40;;;18.63;;
65463;SDS011;52063;45.110;9.870;2023-02-18T12:54:56;21.35;;;15.40;;
65463;SDS011;52063;45.110;9.870;2023-02-18T13:00:14;18.50;;;14.17;;
65463;SDS011;52063;45.110;9.870;2023-02-18T13:03:10;19.58;;;14.43;;
65463;SDS011;52063;45.110;9.870;2023-02-18T13:06:12;17.65;;;13.15;;
65463;SDS011;52063;45.110;9.870;2023-02-18T13:09:17;16.75;;;12.98;;
65463;SDS011;52063;45.110;9.870;2023-02-18T13:11:46;21.75;;;14.52;;
65463;SDS011;52063;45.110;9.870;2023-02-18T13:14:22;21.67;;;14.17;;
65463;SDS011;52063;45.110;9.870;2023-02-18T13:16:50;23.42;;;15.05;;
65463;SDS011;52063;45.110;9.870;2023-02-18T13:19:22;21.10;;;14.55;;
65463;SDS011;52063;45.110;9.870;2023-02-18T13:21:50;25.08;;;15.25;;
65463;SDS011;52063;45.110;9.870;2023-02-18T13:25:01;23.42;;;15.15;;
65463;SDS011;52063;45.110;9.870;2023-02-18T13:35:41;21.05;;;13.13;;
65463;SDS011;52063;45.110;9.870;2023-02-18T13:40:42;29.13;;;17.70;;
65463;SDS011;52063;45.110;9.870;2023-02-18T13:43:18;26.70;;;15.70;;
65463;SDS011;52063;45.110;9.870;2023-02-18T13:51:17;19.73;;;12.15;;
65463;SDS011;52063;45.110;9.870;2023-02-18T13:54:11;19.63;;;12.93;;
65463;SDS011;52063;45.110;9.870;2023-02-18T13:56:43;18.75;;;13.10;;
65463;SDS011;52063;45.110;9.870;2023-02-18T13:59:21;18.73;;;12.20;;
65463;SDS011;52063;45.110;9.870;2023-02-18T14:01:52;17.85;;;12.00;;
65463;SDS011;52063;45.110;9.870;2023-02-18T14:04:34;17.33;;;12.50;;
65463;SDS011;52063;45.110;9.870;2023-02-18T14:09:49;13.82;;;9.98;;
65463;SDS011;52063;45.110;9.870;2023-02-18T14:14:59;14.18;;;10.23;;
65463;SDS011;52063;45.110;9.870;2023-02-18T14:17:29;14.97;;;11.93;;
65463;SDS011;52063;45.110;9.870;2023-02-18T14:22:28;12.80;;;10.33;;
65463;SDS011;52063;45.110;9.870;2023-02-18T14:25:15;13.02;;;11.05;;
65463;SDS011;52063;45.110;9.870;2023-02-18T14:27:46;12.75;;;10.10;;
65463;SDS011;52063;45.110;9.870;2023-02-18T14:32:47;11.15;;;9.18;;
65463;SDS011;52063;45.110;9.870;2023-02-18T14:38:15;12.82;;;10.23;;
65463;SDS011;52063;45.110;9.870;2023-02-18T14:51:59;13.70;;;9.77;;
65463;SDS011;52063;45.110;9.870;2023-02-18T14:54:26;10.60;;;8.80;;
65463;SDS011;52063;45.110;9.870;2023-02-18T14:56:55;8.47;;;7.63;;
65463;SDS011;52063;45.110;9.870;2023-02-18T14:59:28;11.23;;;8.18;;
65463;SDS011;52063;45.110;9.870;2023-02-18T15:01:56;9.45;;;8.15;;
65463;SDS011;52063;45.110;9.870;2023-02-18T15:04:23;9.60;;;8.60;;
65463;SDS011;52063;45.110;9.870;2023-02-18T15:07:00;12.80;;;8.23;;
65463;SDS011;52063;45.110;9.870;2023-02-18T15:09:27;9.77;;;7.63;;
65463;SDS011;52063;45.110;9.870;2023-02-18T15:11:57;9.38;;;7.72;;
65463;SDS011;52063;45.110;9.870;2023-02-18T15:14:28;11.07;;;8.00;;
65463;SDS011;52063;45.110;9.870;2023-02-18T15:16:55;9.40;;;7.70;;
65463;SDS011;52063;45.110;9.870;2023-02-18T15:19:23;9.98;;;7.22;;
65463;SDS011;52063;45.110;9.870;2023-02-18T15:21:50;9.77;;;8.13;;
65463;SDS011;52063;45.110;9.870;2023-02-18T15:24:25;9.20;;;7.82;;
65463;SDS011;52063;45.110;9.870;2023-02-18T15:26:51;9.43;;;7.97;;
65463;SDS011;52063;45.110;9.870;2023-02-18T15:29:24;7.68;;;6.88;;
65463;SDS011;52063;45.110;9.870;2023-02-18T15:31:50;11.15;;;7.03;;
65463;SDS011;52063;45.110;9.870;2023-02-18T15:34:38;7.57;;;6.78;;
65463;SDS011;52063;45.110;9.870;2023-02-18T15:37:05;7.87;;;5.57;;
65463;SDS011;52063;45.110;9.870;2023-02-18T15:39:34;7.32;;;6.53;;
65463;SDS011;52063;45.110;9.870;2023-02-18T15:42:24;8.52;;;6.50;;
65463;SDS011;52063;45.110;9.870;2023-02-18T15:44:52;9.82;;;6.55;;
65463;SDS011;52063;45.110;9.870;2023-02-18T15:47:21;6.32;;;5.72;;
65463;SDS011;52063;45.110;9.870;2023-02-18T15:49:48;5.43;;;4.93;;
65463;SDS011;52063;45.110;9.870;2023-02-18T15:52:22;5.60;;;4.60;;
65463;SDS011;52063;45.110;9.870;2023-02-18T15:54:50;5.97;;;5.47;;
65463;SDS011;52063;45.110;9.870;2023-02-18T15:57:15;7.77;;;5.70;;
65463;SDS011;52063;45.110;9.870;2023-02-18T15:59:44;7.15;;;5.70;;
65463;SDS011;52063;45.110;9.870;2023-02-18T16:02:18;6.43;;;5.70;;
65463;SDS011;52063;45.110;9.870;2023-02-18T16:04:53;6.00;;;5.40;;
65463;SDS011;52063;45.110;9.870;2023-02-18T16:07:24;5.78;;;5.15;;
65463;SDS011;52063;45.110;9.870;2023-02-18T16:12:32;5.85;;;5.25;;
65463;SDS011;52063;45.110;9.870;2023-02-18T16:14:57;7.80;;;6.00;;
65463;SDS011;52063;45.110;9.870;2023-02-18T16:17:24;8.93;;;5.75;;
65463;SDS011;52063;45.110;9.870;2023-02-18T16:19:53;6.03;;;5.07;;
65463;SDS011;52063;45.110;9.870;2023-02-18T16:22:40;5.75;;;5.18;;
65463;SDS011;52063;45.110;9.870;2023-02-18T16:27:37;5.20;;;4.60;;
65463;SDS011;52063;45.110;9.870;2023-02-18T16:32:47;5.53;;;4.72;;
65463;SDS011;52063;45.110;9.870;2023-02-18T16:35:13;5.53;;;4.53;;
65463;SDS011;52063;45.110;9.870;2023-02-18T16:37:40;6.45;;;4.45;;
65463;SDS011;52063;45.110;9.870;2023-02-18T16:40:14;5.50;;;4.90;;
65463;SDS011;52063;45.110;9.870;2023-02-18T16:42:47;5.07;;;4.45;;
65463;SDS011;52063;45.110;9.870;2023-02-18T16:45:12;4.80;;;4.30;;
65463;SDS011;52063;45.110;9.870;2023-02-18T16:47:38;4.73;;;4.23;;
65463;SDS011;52063;45.110;9.870;2023-02-18T16:50:04;6.47;;;4.50;;
65463;SDS011;52063;45.110;9.870;2023-02-18T16:52:30;4.70;;;4.30;;
65463;SDS011;52063;45.110;9.870;2023-02-18T16:54:56;4.80;;;4.37;;
65463;SDS011;52063;45.110;9.870;2023-02-18T16:57:22;4.97;;;4.40;;
65463;SDS011;52063;45.110;9.870;2023-02-18T16:59:47;5.20;;;4.37;;
65463;SDS011;52063;45.110;9.870;2023-02-18T17:02:15;4.93;;;4.15;;
65463;SDS011;52063;45.110;9.870;2023-02-18T17:04:43;4.72;;;4.30;;
65463;SDS011;52063;45.110;9.870;2023-02-18T17:07:09;4.87;;;4.20;;
65463;SDS011;52063;45.110;9.870;2023-02-18T17:09:35;5.60;;;4.15;;
65463;SDS011;52063;45.110;9.870;2023-02-18T17:12:00;4.20;;;3.80;;
65463;SDS011;52063;45.110;9.870;2023-02-18T17:14:27;5.50;;;4.00;;